Time;durP1;ratioP1;P1;durP2;ratioP2;P2;SDS_P1;SDS_P2;PMS_P1;PMS_P2;Temp;Humidity;BMP_temperature;BMP_pressure;BME280_temperature;BME280_humidity;BME280_pressure;Samples;Min_cycle;Max_cycle;Signal;HPM_P1;HPM_P2
2022/11/24 00:01:48;;;;;;;214.30;199.03;;;5.80;35.00;;;;;;5093381;28;20169;-69
2022/11/24 00:04:14;;;;;;;477.87;444.80;;;5.90;36.30;;;;;;5094325;28;20748;-70
2022/11/24 00:06:39;;;;;;;472.63;440.30;;;6.00;36.60;;;;;;5093153;28;20541;-69
2022/11/24 00:09:06;;;;;;;343.87;319.50;;;6.00;37.30;;;;;;5094188;28;20690;-69
2022/11/24 00:11:34;;;;;;;655.97;607.30;;;6.20;35.50;;;;;;5092665;28;20187;-69
2022/11/24 00:14:00;;;;;;;438.37;408.80;;;6.40;34.10;;;;;;5094041;28;20486;-69
2022/11/24 00:16:28;;;;;;;412.97;382.60;;;6.40;34.20;;;;;;5094440;28;20954;-69
2022/11/24 00:18:55;;;;;;;391.17;361.27;;;6.30;34.10;;;;;;5094274;28;20408;-69
2022/11/24 00:21:22;;;;;;;757.50;701.43;;;6.40;32.90;;;;;;5092988;28;20469;-69
2022/11/24 00:23:48;;;;;;;666.77;620.27;;;6.40;32.00;;;;;;5093924;28;20964;-69
2022/11/24 00:26:16;;;;;;;739.47;685.27;;;6.30;31.90;;;;;;5094017;28;20897;-69
2022/11/24 00:28:43;;;;;;;595.37;556.60;;;6.20;32.40;;;;;;5092899;28;20455;-69
2022/11/24 00:31:31;;;;;;;607.07;565.90;;;6.20;32.30;;;;;;5094000;28;20411;-69
2022/11/24 00:33:59;;;;;;;324.57;300.40;;;6.10;32.00;;;;;;5094058;28;20442;-69
2022/11/24 00:36:28;;;;;;;600.43;559.77;;;6.00;33.00;;;;;;5093871;28;20423;-69
2022/11/24 00:39:06;;;;;;;561.40;525.70;;;5.80;33.20;;;;;;5093639;28;20984;-69
2022/11/24 00:41:32;;;;;;;691.17;640.57;;;5.70;35.10;;;;;;5092286;28;20795;-69
2022/11/24 00:43:59;;;;;;;321.10;298.23;;;5.70;34.60;;;;;;5093936;28;20408;-69
2022/11/24 00:46:25;;;;;;;403.93;374.67;;;5.60;35.20;;;;;;5093609;28;20810;-69
2022/11/24 00:48:51;;;;;;;463.60;432.73;;;5.60;35.30;;;;;;5093660;28;20518;-69
2022/11/24 00:51:17;;;;;;;307.70;286.30;;;5.50;36.00;;;;;;5093462;28;20447;-71
2022/11/24 00:53:43;;;;;;;441.73;410.33;;;5.50;36.20;;;;;;5093245;28;20226;-69
2022/11/24 00:56:10;;;;;;;555.43;516.33;;;5.60;36.20;;;;;;5093355;28;20435;-70
2022/11/24 00:58:36;;;;;;;446.37;414.33;;;5.60;36.90;;;;;;5093429;28;20434;-69
2022/11/24 01:01:05;;;;;;;364.33;339.37;;;5.60;35.90;;;;;;5093112;28;20419;-69
2022/11/24 01:03:32;;;;;;;591.80;548.40;;;5.60;36.90;;;;;;5091760;28;20423;-69
2022/11/24 01:06:12;;;;;;;244.73;226.33;;;5.50;36.20;;;;;;5093042;28;20427;-69
2022/11/24 01:08:39;;;;;;;271.17;252.27;;;5.40;38.40;;;;;;5093188;28;20984;-69
2022/11/24 01:11:20;;;;;;;625.53;581.17;;;5.50;37.00;;;;;;5093362;28;20425;-69
2022/11/24 01:13:48;;;;;;;627.23;583.13;;;5.50;36.00;;;;;;5093027;28;20784;-69
2022/11/24 01:16:22;;;;;;;204.90;189.50;;;5.40;36.50;;;;;;5092963;28;20431;-69
2022/11/24 01:18:48;;;;;;;390.33;362.43;;;5.40;36.70;;;;;;5093295;28;20423;-69
2022/11/24 01:21:14;;;;;;;316.83;295.50;;;5.40;36.30;;;;;;5092804;28;20467;-69
2022/11/24 01:23:40;;;;;;;752.87;697.87;;;5.40;36.80;;;;;;5092698;28;20434;-69
2022/11/24 01:26:07;;;;;;;145.60;133.83;;;5.40;35.80;;;;;;5091434;28;20431;-69
2022/11/24 01:28:33;;;;;;;412.77;382.40;;;5.40;36.70;;;;;;5093093;28;20212;-70
2022/11/24 01:31:00;;;;;;;249.90;233.77;;;5.40;36.80;;;;;;5092773;28;20423;-69
2022/11/24 01:33:26;;;;;;;338.83;314.50;;;5.40;37.60;;;;;;5092633;28;20197;-70
2022/11/24 01:35:51;;;;;;;404.63;375.97;;;5.50;37.10;;;;;;5091707;28;20447;-70
2022/11/24 01:38:17;;;;;;;332.03;308.97;;;5.50;37.30;;;;;;5092547;28;20412;-69
2022/11/24 01:40:43;;;;;;;462.13;429.40;;;5.50;36.80;;;;;;5092532;28;20256;-70
2022/11/24 01:43:20;;;;;;;657.37;611.77;;;5.50;37.50;;;;;;5090926;28;20177;-69
2022/11/24 01:45:46;;;;;;;492.97;458.90;;;5.50;37.20;;;;;;5092275;28;20213;-69
2022/11/24 01:48:37;;;;;;;573.43;531.47;;;5.50;37.00;;;;;;5092121;28;20458;-70
2022/11/24 01:51:25;;;;;;;305.13;282.77;;;5.40;37.10;;;;;;5091187;28;20430;-70
2022/11/24 01:54:05;;;;;;;497.37;463.13;;;5.50;38.50;;;;;;5092443;28;20422;-69
2022/11/24 01:56:33;;;;;;;324.53;301.00;;;5.60;36.90;;;;;;5092892;28;20508;-69
2022/11/24 01:59:01;;;;;;;350.53;324.97;;;5.70;37.80;;;;;;5090927;28;20419;-70
2022/11/24 02:01:28;;;;;;;303.87;281.30;;;5.80;37.40;;;;;;5092053;28;20411;-69
2022/11/24 02:03:55;;;;;;;457.23;424.03;;;5.90;36.30;;;;;;5092372;28;20456;-70
2022/11/24 02:06:26;;;;;;;238.27;221.17;;;5.90;35.80;;;;;;5090887;28;20449;-70
2022/11/24 02:09:26;;;;;;;504.77;467.80;;;5.90;35.00;;;;;;5090849;28;21009;-70
2022/11/24 02:11:52;;;;;;;256.70;237.07;;;5.90;35.40;;;;;;5060439;28;20415;-69
2022/11/24 02:14:19;;;;;;;437.50;405.90;;;6.00;34.90;;;;;;5090764;28;20405;-69
2022/11/24 02:16:49;;;;;;;457.40;423.40;;;6.10;33.90;;;;;;5090541;28;20514;-70
2022/11/24 02:19:38;;;;;;;489.17;451.23;;;6.00;33.80;;;;;;5091898;28;20900;-69
2022/11/24 02:22:07;;;;;;;576.17;534.27;;;6.10;34.20;;;;;;5091695;28;20977;-70
2022/11/24 02:24:48;;;;;;;354.77;329.23;;;6.10;33.30;;;;;;5097325;28;20411;-69
2022/11/24 02:27:14;;;;;;;227.93;210.63;;;6.20;33.50;;;;;;5097184;28;20482;-70
2022/11/24 02:29:40;;;;;;;297.50;274.37;;;6.10;33.40;;;;;;5098674;28;20520;-69
2022/11/24 02:32:08;;;;;;;483.07;446.83;;;6.20;32.90;;;;;;5097137;28;20177;-69
2022/11/24 02:34:33;;;;;;;394.70;366.63;;;6.20;32.90;;;;;;5098729;28;20460;-70
2022/11/24 02:36:59;;;;;;;197.00;181.97;;;6.20;32.90;;;;;;5098602;28;20424;-70
2022/11/24 02:39:25;;;;;;;481.60;449.93;;;6.10;33.00;;;;;;5098631;28;20181;-70
2022/11/24 02:41:55;;;;;;;526.20;489.97;;;6.10;32.20;;;;;;5098403;28;20226;-69
2022/11/24 02:44:25;;;;;;;634.43;588.93;;;6.10;32.30;;;;;;5098756;28;20169;-70
2022/11/24 02:47:04;;;;;;;475.17;439.77;;;6.10;31.80;;;;;;5098493;28;20456;-70
2022/11/24 02:49:29;;;;;;;479.07;444.43;;;6.00;32.20;;;;;;5098561;28;20809;-70
2022/11/24 02:51:55;;;;;;;591.47;548.03;;;6.00;32.30;;;;;;5096963;28;20510;-70
2022/11/24 02:54:21;;;;;;;313.53;289.40;;;6.00;32.90;;;;;;5098556;28;20204;-70
2022/11/24 02:56:46;;;;;;;456.90;425.23;;;6.00;32.80;;;;;;5098323;28;20461;-69
2022/11/24 02:59:12;;;;;;;437.37;406.07;;;5.90;32.50;;;;;;5098613;28;20256;-70
2022/11/24 03:01:37;;;;;;;360.20;335.80;;;5.90;32.00;;;;;;5098263;28;20253;-70
2022/11/24 03:04:03;;;;;;;552.30;513.00;;;6.00;32.00;;;;;;5098409;28;20209;-70
2022/11/24 03:06:29;;;;;;;128.77;118.00;;;5.90;32.30;;;;;;5098163;28;20193;-70
2022/11/24 03:08:54;;;;;;;356.10;329.43;;;5.90;32.30;;;;;;5098242;28;20176;-70
2022/11/24 03:11:20;;;;;;;346.57;321.90;;;5.90;31.20;;;;;;5098361;28;20165;-70
2022/11/24 03:13:45;;;;;;;331.23;307.60;;;5.90;31.60;;;;;;5098426;28;20179;-70
2022/11/24 03:16:11;;;;;;;667.87;621.73;;;5.80;31.70;;;;;;5097120;28;20284;-69
2022/11/24 03:18:36;;;;;;;237.47;219.97;;;5.80;31.70;;;;;;5098426;28;20194;-70
2022/11/24 03:21:02;;;;;;;479.87;446.97;;;5.70;32.10;;;;;;5098372;28;20177;-70
2022/11/24 03:23:27;;;;;;;279.87;259.10;;;5.60;32.40;;;;;;5098371;28;20185;-70
2022/11/24 03:25:53;;;;;;;663.53;618.73;;;5.50;32.90;;;;;;5098589;28;20543;-70
2022/11/24 03:28:19;;;;;;;617.50;572.27;;;5.50;33.40;;;;;;5098380;28;20203;-70
2022/11/24 03:30:47;;;;;;;232.60;214.87;;;5.40;33.30;;;;;;5097139;28;20427;-70
2022/11/24 03:33:13;;;;;;;342.13;317.83;;;5.40;33.90;;;;;;5098217;28;20173;-70
2022/11/24 03:35:38;;;;;;;794.47;735.33;;;5.30;33.70;;;;;;5095003;28;20864;-70
2022/11/24 03:38:04;;;;;;;564.63;524.10;;;5.30;34.20;;;;;;5095331;28;20676;-70
2022/11/24 03:40:29;;;;;;;454.53;420.87;;;5.20;34.90;;;;;;5093957;28;20270;-70
2022/11/24 03:42:55;;;;;;;621.20;580.73;;;5.20;34.80;;;;;;5094832;28;20181;-70
2022/11/24 03:45:20;;;;;;;160.97;149.23;;;5.10;34.70;;;;;;5093499;28;20397;-70
2022/11/24 03:47:50;;;;;;;220.67;203.27;;;5.10;35.40;;;;;;5093329;28;20273;-70
2022/11/24 03:50:16;;;;;;;595.90;555.63;;;5.10;35.60;;;;;;5093368;28;20191;-70
2022/11/24 03:52:41;;;;;;;371.70;341.87;;;5.10;35.00;;;;;;5094456;28;20406;-70
2022/11/24 03:55:07;;;;;;;482.33;446.50;;;5.10;35.10;;;;;;5094552;28;20181;-70
2022/11/24 03:57:32;;;;;;;268.70;249.17;;;5.10;35.40;;;;;;5094492;28;20233;-69
2022/11/24 03:59:58;;;;;;;493.83;461.77;;;5.00;35.60;;;;;;5094456;28;20176;-69
2022/11/24 04:02:23;;;;;;;143.87;132.23;;;5.10;35.00;;;;;;5094172;28;20209;-69
2022/11/24 04:04:51;;;;;;;655.80;608.13;;;5.10;36.00;;;;;;5094421;28;20196;-69
2022/11/24 04:07:17;;;;;;;390.00;362.77;;;5.10;35.10;;;;;;5094196;28;20578;-70
2022/11/24 04:09:43;;;;;;;317.90;297.00;;;5.10;34.80;;;;;;5094224;28;20415;-70
2022/11/24 04:14:53;;;;;;;679.90;632.43;;;5.00;34.40;;;;;;5094587;28;20409;-69
2022/11/24 04:17:19;;;;;;;613.00;574.33;;;5.00;34.20;;;;;;5093980;28;20884;-69
2022/11/24 04:19:44;;;;;;;453.30;422.93;;;4.90;34.10;;;;;;5094284;28;20201;-69
2022/11/24 04:22:10;;;;;;;375.30;348.03;;;4.80;35.30;;;;;;5094017;28;20554;-69
2022/11/24 04:24:35;;;;;;;558.20;520.83;;;4.80;35.90;;;;;;5092773;28;20191;-69
2022/11/24 04:27:01;;;;;;;143.73;131.47;;;4.80;36.00;;;;;;5093871;28;20202;-69
2022/11/24 04:29:26;;;;;;;356.63;329.60;;;4.80;36.70;;;;;;5094073;28;20180;-70
2022/11/24 04:31:52;;;;;;;196.10;180.43;;;4.80;36.40;;;;;;5094185;28;20182;-69
2022/11/24 04:34:17;;;;;;;393.67;365.93;;;4.80;36.80;;;;;;5092372;28;20176;-69
2022/11/24 04:36:43;;;;;;;485.73;450.23;;;4.80;35.20;;;;;;5093622;28;20223;-69
2022/11/24 04:39:08;;;;;;;461.83;430.83;;;4.80;35.30;;;;;;5093778;28;20584;-70
2022/11/24 04:41:34;;;;;;;570.10;529.20;;;4.90;35.50;;;;;;5093476;28;20219;-70
2022/11/24 04:43:59;;;;;;;377.47;348.57;;;4.90;35.30;;;;;;5093785;28;20263;-70
2022/11/24 04:46:25;;;;;;;417.03;387.40;;;5.00;34.90;;;;;;5093277;28;20224;-70
2022/11/24 04:48:50;;;;;;;296.23;275.90;;;5.00;34.30;;;;;;5093526;28;20684;-70
2022/11/24 04:51:16;;;;;;;276.83;255.50;;;5.10;34.60;;;;;;5092379;28;20204;-70
2022/11/24 04:53:41;;;;;;;353.90;326.40;;;5.20;34.30;;;;;;5093251;28;20203;-70
2022/11/24 04:56:07;;;;;;;628.77;584.47;;;5.30;33.20;;;;;;5092038;28;20271;-70
2022/11/24 04:58:33;;;;;;;473.10;439.03;;;5.40;32.90;;;;;;5093645;28;20184;-70
2022/11/24 05:00:59;;;;;;;494.30;457.93;;;5.50;32.70;;;;;;5093507;28;20170;-70
2022/11/24 05:03:24;;;;;;;557.03;517.80;;;5.70;32.00;;;;;;5092901;28;20169;-70
2022/11/24 05:05:50;;;;;;;587.33;547.00;;;5.80;30.30;;;;;;5093714;28;20169;-70
2022/11/24 05:08:15;;;;;;;615.10;573.73;;;5.80;29.90;;;;;;5091853;28;20265;-70
2022/11/24 05:10:41;;;;;;;305.00;281.63;;;5.80;29.70;;;;;;5093268;28;20486;-70
2022/11/24 05:13:10;;;;;;;279.43;257.83;;;5.70;29.70;;;;;;5093357;28;20637;-70
2022/11/24 05:15:37;;;;;;;383.50;356.67;;;5.70;29.30;;;;;;5093319;28;20499;-70
2022/11/24 05:18:04;;;;;;;228.57;210.23;;;5.70;29.50;;;;;;5092803;28;20466;-69
2022/11/24 05:20:30;;;;;;;293.03;270.37;;;5.60;29.30;;;;;;5092871;28;20415;-70
2022/11/24 05:23:00;;;;;;;640.10;596.10;;;5.60;29.00;;;;;;5092710;28;20442;-70
2022/11/24 05:25:26;;;;;;;565.57;527.67;;;5.60;29.60;;;;;;5093033;28;20200;-70
2022/11/24 05:27:51;;;;;;;576.10;535.43;;;5.60;29.50;;;;;;5092822;28;20446;-69
2022/11/24 05:30:17;;;;;;;742.67;691.77;;;5.50;29.60;;;;;;5092867;28;20690;-70
2022/11/24 05:32:43;;;;;;;538.80;504.27;;;5.50;29.50;;;;;;5092541;28;20509;-70
2022/11/24 05:35:08;;;;;;;464.00;431.97;;;5.50;29.60;;;;;;5092918;28;20169;-70
2022/11/24 05:37:34;;;;;;;379.73;352.77;;;5.60;29.30;;;;;;5092581;28;20254;-70
2022/11/24 05:39:59;;;;;;;594.00;554.70;;;5.60;29.50;;;;;;5092600;28;20181;-70
2022/11/24 05:42:40;;;;;;;510.80;476.13;;;5.50;29.50;;;;;;5091932;28;20191;-70
2022/11/24 05:45:11;;;;;;;753.77;700.80;;;5.40;29.80;;;;;;5092373;28;20225;-70
2022/11/24 05:47:38;;;;;;;586.80;547.77;;;5.40;29.90;;;;;;5092561;28;20469;-69
2022/11/24 05:50:04;;;;;;;342.87;320.37;;;5.40;30.00;;;;;;5092445;28;20422;-69
2022/11/24 05:52:29;;;;;;;296.93;276.43;;;5.40;30.60;;;;;;5090815;28;20914;-69
2022/11/24 05:54:55;;;;;;;632.57;589.73;;;5.30;30.80;;;;;;5090892;28;20455;-69
2022/11/24 05:57:20;;;;;;;595.10;553.83;;;5.30;30.60;;;;;;5090742;28;20230;-70
2022/11/24 05:59:46;;;;;;;524.47;489.83;;;5.20;31.00;;;;;;5091594;28;20177;-69
2022/11/24 06:02:12;;;;;;;544.63;508.67;;;5.10;32.10;;;;;;5091910;28;20662;-70
2022/11/24 06:04:38;;;;;;;357.77;332.43;;;5.10;32.30;;;;;;5091945;28;20648;-70
2022/11/24 06:07:07;;;;;;;286.10;265.53;;;5.10;32.20;;;;;;5090795;28;20472;-70
2022/11/24 06:09:36;;;;;;;433.63;404.30;;;5.10;32.00;;;;;;5092051;28;20306;-70
2022/11/24 06:12:02;;;;;;;442.13;411.57;;;5.10;31.90;;;;;;5091751;28;20422;-70
2022/11/24 06:14:27;;;;;;;135.50;122.87;;;5.10;31.70;;;;;;5091881;28;20410;-69
2022/11/24 06:16:53;;;;;;;415.00;386.20;;;5.10;31.80;;;;;;5091907;28;20442;-70
2022/11/24 06:19:18;;;;;;;307.80;284.30;;;5.10;31.90;;;;;;5091861;28;20241;-69
2022/11/24 06:21:44;;;;;;;246.17;228.67;;;5.20;32.10;;;;;;5091423;28;20192;-71
2022/11/24 06:24:10;;;;;;;262.40;242.17;;;5.30;31.90;;;;;;5092714;28;20230;-70
2022/11/24 06:26:35;;;;;;;279.73;257.10;;;5.40;31.30;;;;;;5091192;28;20205;-70
2022/11/24 06:29:01;;;;;;;236.63;217.57;;;5.40;31.10;;;;;;5092209;28;20229;-70
2022/11/24 06:31:26;;;;;;;290.80;268.60;;;5.40;30.60;;;;;;5092028;28;20206;-70
2022/11/24 06:33:52;;;;;;;145.73;132.73;;;5.50;30.00;;;;;;5092490;28;20180;-70
2022/11/24 06:36:17;;;;;;;233.13;213.90;;;5.60;29.60;;;;;;5092183;28;20609;-70
2022/11/24 06:38:43;;;;;;;213.07;194.90;;;5.60;28.80;;;;;;5092370;28;20264;-71
2022/11/24 06:41:11;;;;;;;325.33;299.63;;;5.70;28.80;;;;;;5092297;28;20188;-70
2022/11/24 06:43:37;;;;;;;262.50;242.77;;;5.80;28.20;;;;;;5091684;28;20180;-71
2022/11/24 06:46:03;;;;;;;297.07;273.90;;;5.80;27.90;;;;;;5092060;28;20760;-70
2022/11/24 06:48:29;;;;;;;474.80;443.30;;;5.80;28.30;;;;;;5090722;28;20209;-70
2022/11/24 06:51:03;;;;;;;447.80;417.07;;;5.90;28.40;;;;;;5091788;28;20426;-70
2022/11/24 06:53:36;;;;;;;247.17;228.20;;;5.90;28.10;;;;;;5090130;28;20423;-70
2022/11/24 06:56:04;;;;;;;391.87;365.97;;;5.90;28.00;;;;;;5091352;28;20476;-69
2022/11/24 06:58:30;;;;;;;458.27;427.17;;;6.00;28.00;;;;;;5091716;28;20411;-70
2022/11/24 07:00:56;;;;;;;359.60;335.30;;;6.10;27.70;;;;;;5090954;28;20518;-70
2022/11/24 07:03:21;;;;;;;321.63;298.20;;;6.10;27.50;;;;;;5091273;28;20548;-70
2022/11/24 07:05:47;;;;;;;313.10;290.77;;;6.10;27.30;;;;;;5091452;28;20184;-70
2022/11/24 07:08:13;;;;;;;321.27;297.87;;;6.20;26.70;;;;;;5091307;28;20205;-70
2022/11/24 07:10:38;;;;;;;360.17;333.93;;;6.20;26.90;;;;;;5093433;28;20580;-70
2022/11/24 07:13:07;;;;;;;369.47;344.47;;;6.30;26.80;;;;;;5094524;28;20422;-69
2022/11/24 07:15:33;;;;;;;123.17;111.03;;;6.30;26.80;;;;;;5095750;28;20180;-70
2022/11/24 07:17:58;;;;;;;288.73;268.20;;;6.30;27.10;;;;;;5094653;28;20961;-70
2022/11/24 07:20:25;;;;;;;358.73;332.97;;;6.30;27.10;;;;;;5097518;28;20177;-69
2022/11/24 07:22:55;;;;;;;414.33;387.10;;;6.40;26.80;;;;;;5096003;28;20181;-70
2022/11/24 07:25:20;;;;;;;322.17;298.97;;;6.40;26.70;;;;;;5094337;28;20510;-68
2022/11/24 07:27:46;;;;;;;349.20;325.40;;;6.50;26.70;;;;;;5095097;28;20638;-68
2022/11/24 07:30:12;;;;;;;358.57;334.57;;;6.50;26.60;;;;;;5095144;28;20490;-70
2022/11/24 07:32:37;;;;;;;353.00;329.67;;;6.50;26.50;;;;;;5093502;28;20181;-69
2022/11/24 07:35:03;;;;;;;335.33;310.00;;;6.50;26.20;;;;;;5093953;28;20567;-69
2022/11/24 07:37:29;;;;;;;311.60;287.07;;;6.60;26.30;;;;;;5095266;28;20566;-70
2022/11/24 07:39:55;;;;;;;401.77;373.40;;;6.70;26.60;;;;;;5091364;28;20185;-70
2022/11/24 07:42:20;;;;;;;413.43;385.60;;;6.70;27.10;;;;;;5094243;28;20948;-70
2022/11/24 07:44:46;;;;;;;272.30;252.93;;;6.70;28.10;;;;;;5094855;28;20659;-70
2022/11/24 07:47:11;;;;;;;198.67;184.10;;;6.60;28.80;;;;;;5094448;28;20207;-70
2022/11/24 07:49:37;;;;;;;659.80;615.90;;;6.70;29.50;;;;;;5094555;28;20175;-70
2022/11/24 07:52:03;;;;;;;547.07;508.97;;;6.70;29.20;;;;;;5094102;28;20175;-69
2022/11/24 07:54:29;;;;;;;336.40;312.67;;;6.80;29.40;;;;;;5094551;28;20303;-70
2022/11/24 07:56:55;;;;;;;382.57;353.20;;;6.80;28.80;;;;;;5112407;22;20483;-70
2022/11/24 07:59:21;;;;;;;263.43;245.00;;;7.00;29.20;;;;;;5055707;28;20417;-70
2022/11/24 08:01:46;;;;;;;196.67;181.80;;;7.10;29.10;;;;;;5074322;28;20812;-69
2022/11/24 08:04:12;;;;;;;466.00;434.00;;;7.30;29.30;;;;;;5074397;28;20171;-71
2022/11/24 08:06:37;;;;;;;383.33;356.57;;;7.30;29.00;;;;;;5073971;28;20660;-71
2022/11/24 08:09:03;;;;;;;698.57;648.23;;;7.30;29.40;;;;;;5074675;28;20222;-70
2022/11/24 08:11:30;;;;;;;713.40;661.07;;;7.40;29.90;;;;;;5072608;28;20183;-70
2022/11/24 08:13:56;;;;;;;240.20;221.60;;;7.50;29.90;;;;;;5073940;28;20227;-70
2022/11/24 08:16:21;;;;;;;502.53;466.47;;;7.60;29.40;;;;;;5073709;28;20425;-71
2022/11/24 08:18:54;;;;;;;370.10;342.10;;;7.60;29.90;;;;;;5073787;28;20174;-70
2022/11/24 08:21:21;;;;;;;480.63;447.27;;;7.70;29.60;;;;;;5071651;28;20174;-71
2022/11/24 08:23:47;;;;;;;312.47;289.73;;;7.70;29.20;;;;;;5073560;28;20412;-70
2022/11/24 08:26:17;;;;;;;597.70;556.17;;;7.70;29.50;;;;;;5073618;28;20475;-70
2022/11/24 08:28:46;;;;;;;527.37;491.30;;;7.60;29.60;;;;;;5072200;28;20465;-71
2022/11/24 08:31:14;;;;;;;401.77;373.67;;;7.60;30.00;;;;;;5073548;28;20432;-72
2022/11/24 08:33:40;;;;;;;432.73;407.17;;;;;;;;;;5073465;28;20459;-77
2022/11/24 08:36:12;;;;;;;528.03;490.47;;;7.70;53.90;;;;;;5073430;28;20412;-71
2022/11/24 08:38:38;;;;;;;472.83;441.27;;;7.70;52.60;;;;;;5073429;28;20419;-72
2022/11/24 08:41:14;;;;;;;718.60;664.77;;;7.50;52.30;;;;;;5073397;28;21049;-71
2022/11/24 08:43:39;;;;;;;383.33;357.33;;;7.50;54.20;;;;;;5073142;28;20420;-70
2022/11/24 08:46:08;;;;;;;574.93;533.97;;;7.60;52.80;;;;;;5071997;28;20494;-70
2022/11/24 08:48:34;;;;;;;432.40;401.43;;;7.50;53.20;;;;;;5073185;28;20420;-70
2022/11/24 08:51:07;;;;;;;402.87;374.03;;;7.50;52.10;;;;;;5072161;28;20410;-70
2022/11/24 08:53:33;;;;;;;489.43;453.77;;;7.50;52.30;;;;;;5073248;28;20406;-71
2022/11/24 08:55:59;;;;;;;523.23;491.27;;;7.50;52.30;;;;;;5073017;28;20417;-70
2022/11/24 08:58:25;;;;;;;297.93;276.87;;;7.60;52.80;;;;;;5072775;28;20591;-71
2022/11/24 09:00:50;;;;;;;508.80;474.00;;;7.80;52.40;;;;;;5072977;28;20421;-71
2022/11/24 09:03:16;;;;;;;638.03;593.77;;;8.00;51.20;;;;;;5072697;28;20178;-75
2022/11/24 09:05:41;;;;;;;338.67;314.23;;;8.10;50.70;;;;;;5071777;28;20179;-74
2022/11/24 09:08:07;;;;;;;452.27;421.43;;;8.10;50.20;;;;;;5072678;28;20214;-74
2022/11/24 09:10:33;;;;;;;530.27;495.43;;;8.10;49.00;;;;;;5072859;28;20183;-71
2022/11/24 09:12:58;;;;;;;385.73;360.40;;;8.00;49.50;;;;;;5072662;28;20188;-70
2022/11/24 09:15:24;;;;;;;504.77;470.03;;;8.10;48.50;;;;;;5072672;28;20653;-70
2022/11/24 09:17:49;;;;;;;499.47;466.90;;;8.10;48.10;;;;;;5072544;28;20195;-71
2022/11/24 09:20:15;;;;;;;314.40;291.03;;;8.00;48.40;;;;;;5073615;28;20181;-71
2022/11/24 09:22:41;;;;;;;556.47;522.03;;;8.10;47.40;;;;;;5071003;28;20583;-71
2022/11/24 09:25:08;;;;;;;452.67;420.50;;;8.20;47.50;;;;;;5072593;28;20186;-71
2022/11/24 09:27:34;;;;;;;545.77;508.50;;;8.00;47.80;;;;;;5072230;28;20473;-71
2022/11/24 09:30:00;;;;;;;345.30;320.93;;;8.00;47.40;;;;;;5072196;28;20421;-71
2022/11/24 09:32:28;;;;;;;520.90;489.17;;;7.90;47.20;;;;;;5071623;28;20415;-71
2022/11/24 09:34:53;;;;;;;436.77;407.20;;;7.80;47.90;;;;;;5072217;28;20203;-70
2022/11/24 09:37:19;;;;;;;297.13;275.10;;;7.90;49.00;;;;;;5071921;28;20869;-71
2022/11/24 09:39:45;;;;;;;541.33;504.43;;;8.10;49.10;;;;;;5073390;28;20176;-71
2022/11/24 09:42:30;;;;;;;277.10;258.77;;;8.20;47.20;;;;;;5072676;28;20184;-71
2022/11/24 09:45:17;;;;;;;289.77;269.57;;;8.30;45.90;;;;;;5072045;28;20176;-71
2022/11/24 09:47:42;;;;;;;424.87;397.73;;;8.50;45.70;;;;;;5072059;28;20507;-72
2022/11/24 09:50:18;;;;;;;450.47;420.53;;;8.90;44.30;;;;;;5072136;28;20423;-71
2022/11/24 09:53:00;;;;;;;577.90;542.03;;;9.00;43.50;;;;;;5071978;28;20174;-72
2022/11/24 09:55:33;;;;;;;248.27;230.63;;;8.90;41.30;;;;;;5070809;28;20443;-71
2022/11/24 09:58:38;;;;;;;417.23;392.20;;;9.00;41.40;;;;;;5071736;28;20458;-72
2022/11/24 10:01:25;;;;;;;362.73;339.47;;;9.10;41.60;;;;;;5071967;28;20929;-71
2022/11/24 10:03:51;;;;;;;397.87;371.20;;;9.30;41.70;;;;;;5071465;28;20428;-71
2022/11/24 10:06:17;;;;;;;490.53;462.03;;;;;;;;;;5072036;28;20423;-71
2022/11/24 10:08:53;;;;;;;418.70;392.47;;;;;;;;;;5072171;28;20545;-71
2022/11/24 10:11:29;;;;;;;443.60;416.97;;;;;;;;;;5071852;28;20470;-71
2022/11/24 10:14:14;;;;;;;206.47;190.90;;;;;;;;;;5071765;28;20410;-71
2022/11/24 10:16:47;;;;;;;413.07;386.13;;;;;;;;;;5071650;28;20442;-72
2022/11/24 10:19:16;;;;;;;426.33;399.23;;;;;;;;;;5071773;28;20432;-72
2022/11/24 10:21:57;;;;;;;164.80;151.90;;;;;;;;;;5071719;28;20408;-72
2022/11/24 10:24:26;;;;;;;395.00;368.93;;;;;;;;;;5071795;28;20400;-72
2022/11/24 10:27:16;;;;;;;352.80;330.17;;;;;;;;;;5071873;28;20511;-72
2022/11/24 10:29:42;;;;;;;389.63;363.87;;;10.60;22.70;;;;;;5063916;28;20483;-72
2022/11/24 10:32:18;;;;;;;443.03;416.33;;;10.50;21.20;;;;;;5071478;28;20415;-72
2022/11/24 10:34:45;;;;;;;428.77;402.93;;;10.40;20.80;;;;;;5071577;28;20407;-72
2022/11/24 10:37:22;;;;;;;552.30;520.93;;;10.40;21.00;;;;;;5071587;28;20989;-72
2022/11/24 10:40:05;;;;;;;421.97;395.43;;;10.10;20.50;;;;;;5071621;28;20422;-71
2022/11/24 10:42:35;;;;;;;463.63;434.03;;;9.90;20.90;;;;;;5071288;28;20412;-72
2022/11/24 10:45:11;;;;;;;447.60;420.43;;;10.10;18.70;;;;;;5072122;28;20448;-72
2022/11/24 10:47:38;;;;;;;609.50;575.50;;;10.10;18.50;;;;;;5075384;28;20469;-73
2022/11/24 10:50:18;;;;;;;565.73;530.03;;;10.10;18.40;;;;;;5075465;28;20419;-73
2022/11/24 10:53:01;;;;;;;425.57;399.10;;;10.10;17.90;;;;;;5075137;28;20411;-73
2022/11/24 10:55:52;;;;;;;415.03;387.10;;;10.30;18.50;;;;;;5073857;28;20905;-73
2022/11/24 10:58:23;;;;;;;436.73;410.27;;;10.70;17.20;;;;;;5074989;28;20838;-73
2022/11/24 11:00:48;;;;;;;412.97;385.77;;;10.70;17.40;;;;;;5075159;28;20420;-73
2022/11/24 11:03:20;;;;;;;272.77;254.70;;;10.70;17.90;;;;;;5074926;28;20430;-73
2022/11/24 11:06:01;;;;;;;313.83;292.30;;;10.40;16.90;;;;;;5075218;28;20223;-73
2022/11/24 11:08:31;;;;;;;576.07;536.43;;;10.40;17.60;;;;;;5075049;28;20463;-73
2022/11/24 11:11:15;;;;;;;499.27;467.87;;;10.20;18.50;;;;;;5075071;28;20408;-73
2022/11/24 11:13:54;;;;;;;272.60;254.53;;;10.10;17.60;;;;;;5074786;28;20408;-73
2022/11/24 11:16:36;;;;;;;402.00;374.37;;;10.40;17.90;;;;;;5074736;28;20450;-73
2022/11/24 11:19:04;;;;;;;389.00;364.17;;;10.30;17.20;;;;;;5075141;28;20490;-73
2022/11/24 11:21:37;;;;;;;529.67;492.93;;;10.20;18.10;;;;;;5074983;28;20414;-73
2022/11/24 11:24:12;;;;;;;503.90;472.53;;;10.10;17.60;;;;;;5075317;28;20419;-73
2022/11/24 11:26:38;;;;;;;257.23;240.23;;;10.20;18.50;;;;;;5073782;28;20962;-73
2022/11/24 11:29:07;;;;;;;456.60;426.93;;;10.10;18.50;;;;;;5074422;28;20466;-73
2022/11/24 11:31:37;;;;;;;236.43;219.90;;;10.20;18.50;;;;;;5074699;28;20436;-72
2022/11/24 11:34:08;;;;;;;469.97;438.97;;;10.50;18.70;;;;;;5075108;28;20467;-71
2022/11/24 11:36:38;;;;;;;747.33;682.57;;;10.70;16.40;;;;;;5074566;28;20436;-71
2022/11/24 11:39:04;;;;;;;396.00;372.10;;;10.70;17.20;;;;;;5073431;28;20424;-70
2022/11/24 11:41:37;;;;;;;601.47;558.03;;;10.60;17.50;;;;;;5074418;28;20926;-70
2022/11/24 11:44:37;;;;;;;391.37;367.17;;;10.60;17.60;;;;;;5074785;28;20890;-71
2022/11/24 11:47:21;;;;;;;394.43;368.73;;;10.60;17.70;;;;;;5074443;28;20830;-71
2022/11/24 11:49:48;;;;;;;347.03;324.37;;;11.10;16.20;;;;;;5074451;28;20421;-70
2022/11/24 11:52:39;;;;;;;249.00;231.80;;;11.30;16.20;;;;;;5072808;28;20482;-70
2022/11/24 11:55:26;;;;;;;366.13;343.03;;;11.70;14.80;;;;;;5073004;28;20787;-71
2022/11/24 11:58:35;;;;;;;416.83;389.53;;;12.10;14.20;;;;;;5073473;28;20821;-71
2022/11/24 12:01:19;;;;;;;441.97;413.20;;;12.10;13.50;;;;;;5074238;28;20507;-71
2022/11/24 12:03:52;;;;;;;577.97;540.93;;;12.00;12.50;;;;;;5072722;28;20930;-70
2022/11/24 12:06:44;;;;;;;237.13;220.23;;;11.70;12.60;;;;;;5074148;28;20419;-71
2022/11/24 12:09:28;;;;;;;360.73;339.43;;;12.10;12.50;;;;;;5073304;28;21010;-71
2022/11/24 12:12:26;;;;;;;525.10;488.97;;;12.40;12.10;;;;;;5072677;28;20435;-70
2022/11/24 12:15:16;;;;;;;429.77;402.63;;;12.10;11.10;;;;;;5072740;28;20428;-70
2022/11/24 12:17:53;;;;;;;452.43;423.83;;;12.00;12.20;;;;;;5074010;28;20428;-69
2022/11/24 12:21:01;;;;;;;405.73;379.63;;;11.60;12.30;;;;;;5074290;28;20813;-71
2022/11/24 12:23:57;;;;;;;326.03;303.87;;;11.60;12.00;;;;;;5073896;28;20411;-70
2022/11/24 12:26:31;;;;;;;466.93;435.67;;;11.30;11.30;;;;;;5073586;28;20409;-70
2022/11/24 12:29:31;;;;;;;355.47;331.43;;;11.40;10.60;;;;;;5073788;28;21046;-70
2022/11/24 12:32:27;;;;;;;361.67;336.87;;;11.40;12.50;;;;;;5073422;28;20439;-69
2022/11/24 12:35:14;;;;;;;635.00;579.83;;;11.30;12.20;;;;;;5072119;28;20859;-70